Time;durP1;ratioP1;P1;durP2;ratioP2;P2;SDS_P1;SDS_P2;PMS_P1;PMS_P2;Temp;Humidity;BMP_temperature;BMP_pressure;BME280_temperature;BME280_humidity;BME280_pressure;Samples;Min_cycle;Max_cycle;Signal;HPM_P1;HPM_P2
2020/12/26 00:01:14;;;;;;;30.00;11.48;;;-1.40;99.90;;;;;;4979119;28;20331;-67
2020/12/26 00:03:42;;;;;;;30.85;12.00;;;-1.40;99.90;;;;;;4979394;28;20427;-67
2020/12/26 00:06:15;;;;;;;23.13;9.88;;;-1.40;99.90;;;;;;4977745;28;20076;-67
2020/12/26 00:08:43;;;;;;;33.22;10.75;;;-1.40;99.90;;;;;;4979246;28;20416;-67
2020/12/26 00:11:12;;;;;;;27.00;10.65;;;-1.40;99.90;;;;;;4978966;28;20029;-66
2020/12/26 00:13:40;;;;;;;32.70;10.18;;;-1.40;99.90;;;;;;4994306;28;20023;-67
2020/12/26 00:16:09;;;;;;;30.48;12.02;;;-1.50;99.90;;;;;;4978827;28;20113;-67
2020/12/26 00:18:36;;;;;;;30.90;9.95;;;-1.50;99.90;;;;;;4978931;28;20029;-67
2020/12/26 00:21:08;;;;;;;28.33;10.30;;;-1.50;99.90;;;;;;4979327;28;20031;-67
2020/12/26 00:23:36;;;;;;;26.10;10.80;;;-1.40;99.90;;;;;;4978977;28;20027;-67
2020/12/26 00:26:04;;;;;;;36.22;13.00;;;-1.50;99.90;;;;;;4978674;28;20335;-67
2020/12/26 00:28:33;;;;;;;34.45;15.90;;;-1.40;99.90;;;;;;4979157;28;20106;-67
2020/12/26 00:31:01;;;;;;;31.90;14.55;;;-1.40;99.90;;;;;;4993627;28;20038;-66
2020/12/26 00:33:32;;;;;;;24.98;12.57;;;-1.40;99.90;;;;;;4978758;28;20402;-67
2020/12/26 00:36:02;;;;;;;25.08;12.57;;;-1.40;99.90;;;;;;4978527;28;20030;-67
2020/12/26 00:38:29;;;;;;;27.88;11.85;;;-1.30;99.90;;;;;;4977442;28;20423;-66
2020/12/26 00:40:57;;;;;;;29.13;12.90;;;-1.30;99.90;;;;;;4978716;28;20114;-67
2020/12/26 00:43:24;;;;;;;26.58;11.50;;;-1.20;99.90;;;;;;4993741;28;20458;-67
2020/12/26 00:45:52;;;;;;;22.73;9.70;;;-1.20;99.90;;;;;;4993205;28;20027;-66
2020/12/26 00:48:20;;;;;;;21.70;10.05;;;-1.10;99.90;;;;;;4993420;28;20179;-67
2020/12/26 00:50:47;;;;;;;29.05;9.95;;;-1.00;99.90;;;;;;4978263;28;20046;-66
2020/12/26 00:53:15;;;;;;;48.47;15.15;;;-0.90;99.90;;;;;;4978400;28;20019;-67
2020/12/26 00:55:43;;;;;;;44.47;13.45;;;-0.80;99.90;;;;;;4978486;28;20027;-67
2020/12/26 00:58:11;;;;;;;31.52;12.45;;;-0.70;99.90;;;;;;4978169;28;20042;-67
2020/12/26 01:00:38;;;;;;;23.05;9.88;;;-0.60;99.90;;;;;;4978146;28;20426;-67
2020/12/26 01:03:06;;;;;;;25.17;10.63;;;-0.50;99.90;;;;;;4978550;28;20347;-67
2020/12/26 01:05:33;;;;;;;20.90;9.73;;;-0.40;99.90;;;;;;4977800;28;20046;-67
2020/12/26 01:08:01;;;;;;;23.27;9.73;;;-0.40;99.90;;;;;;4993156;28;20027;-67
2020/12/26 01:10:28;;;;;;;19.85;9.38;;;-0.30;99.90;;;;;;4978584;28;20397;-67
2020/12/26 01:12:56;;;;;;;20.83;9.52;;;-0.30;99.90;;;;;;4978173;28;20027;-67
2020/12/26 01:15:24;;;;;;;22.88;9.02;;;-0.20;99.90;;;;;;4977845;28;20046;-67
2020/12/26 01:17:51;;;;;;;17.95;9.98;;;-0.20;99.90;;;;;;4978172;28;20031;-67
2020/12/26 01:20:18;;;;;;;21.48;9.07;;;-0.10;99.90;;;;;;4976817;28;20308;-67
2020/12/26 01:22:45;;;;;;;20.05;8.65;;;-0.10;99.90;;;;;;4977858;28;20064;-67
2020/12/26 01:25:13;;;;;;;22.35;9.15;;;0.00;99.90;;;;;;4977720;28;20073;-67
2020/12/26 01:27:40;;;;;;;24.55;9.18;;;0.10;99.90;;;;;;4978545;28;20081;-67
2020/12/26 01:30:08;;;;;;;20.75;8.93;;;0.10;99.90;;;;;;4977713;28;20023;-67
2020/12/26 01:32:36;;;;;;;22.65;9.80;;;0.20;99.90;;;;;;4977754;28;20023;-67
2020/12/26 01:35:03;;;;;;;28.20;9.43;;;0.30;99.90;;;;;;4977657;28;20110;-67
2020/12/26 01:37:31;;;;;;;29.70;10.32;;;0.30;99.90;;;;;;4978387;28;20022;-67
2020/12/26 01:39:59;;;;;;;24.60;10.75;;;0.30;99.90;;;;;;4977590;28;20030;-67
2020/12/26 01:42:26;;;;;;;21.50;8.98;;;0.40;99.90;;;;;;4977714;28;20026;-67
2020/12/26 01:44:55;;;;;;;28.92;11.73;;;0.40;99.90;;;;;;4978507;28;20289;-67
2020/12/26 01:47:22;;;;;;;22.63;9.93;;;0.40;99.90;;;;;;4977765;28;20042;-67
2020/12/26 01:49:50;;;;;;;17.55;9.35;;;0.40;99.90;;;;;;4976426;28;20100;-67
2020/12/26 01:52:18;;;;;;;19.30;9.38;;;0.40;99.90;;;;;;4977833;28;20023;-67
2020/12/26 01:54:45;;;;;;;22.98;11.05;;;0.40;99.90;;;;;;4977559;28;20023;-67
2020/12/26 01:57:14;;;;;;;21.88;9.77;;;0.40;99.90;;;;;;4978581;28;20154;-67
2020/12/26 01:59:42;;;;;;;20.38;9.45;;;0.40;99.90;;;;;;4981344;28;20110;-67
2020/12/26 02:02:10;;;;;;;21.77;10.32;;;0.40;99.90;;;;;;4997376;28;20031;-67
2020/12/26 02:04:37;;;;;;;22.77;9.48;;;0.40;99.90;;;;;;4996206;28;20031;-67
2020/12/26 02:07:05;;;;;;;23.52;10.55;;;0.40;99.90;;;;;;4981975;28;20031;-67
2020/12/26 02:09:34;;;;;;;20.35;9.88;;;0.50;99.90;;;;;;4981159;28;20027;-67
2020/12/26 02:12:02;;;;;;;22.17;10.65;;;0.50;99.90;;;;;;4981222;28;20027;-67
2020/12/26 02:14:30;;;;;;;22.55;11.32;;;0.50;99.90;;;;;;4996527;28;20027;-67
2020/12/26 02:16:58;;;;;;;21.50;11.15;;;0.50;99.90;;;;;;4981251;28;20331;-67
2020/12/26 02:19:26;;;;;;;24.90;10.25;;;0.60;99.90;;;;;;4981057;28;20023;-67
2020/12/26 02:21:54;;;;;;;41.03;11.57;;;0.60;99.90;;;;;;4981317;28;20097;-67
2020/12/26 02:24:22;;;;;;;24.55;11.05;;;0.60;99.90;;;;;;4981233;28;20031;-67
2020/12/26 02:26:50;;;;;;;26.73;11.45;;;0.70;99.90;;;;;;4981123;28;20077;-67
2020/12/26 02:29:17;;;;;;;24.98;13.30;;;0.70;99.90;;;;;;4980788;28;20033;-66
2020/12/26 02:31:45;;;;;;;29.17;11.10;;;0.80;99.90;;;;;;4981335;28;20400;-67
2020/12/26 02:34:12;;;;;;;30.80;11.55;;;0.80;99.90;;;;;;4981069;28;20029;-67
2020/12/26 02:36:39;;;;;;;20.50;10.13;;;0.80;99.90;;;;;;4981291;28;20022;-67
2020/12/26 02:39:08;;;;;;;33.58;11.05;;;0.90;99.90;;;;;;4980670;28;20078;-67
2020/12/26 02:41:35;;;;;;;27.58;11.00;;;0.90;99.90;;;;;;4980939;28;20101;-67
2020/12/26 02:44:03;;;;;;;22.63;10.40;;;0.90;99.90;;;;;;4981284;28;20023;-67
2020/12/26 02:46:31;;;;;;;22.63;9.88;;;1.00;99.90;;;;;;4980797;28;20084;-67
2020/12/26 02:48:59;;;;;;;20.67;10.95;;;1.00;99.90;;;;;;4979540;28;20323;-67
2020/12/26 02:51:26;;;;;;;23.95;11.32;;;1.00;99.90;;;;;;4995847;28;20023;-67
2020/12/26 02:53:54;;;;;;;17.13;9.63;;;1.00;99.90;;;;;;4980443;28;20415;-67
2020/12/26 02:56:22;;;;;;;18.80;8.85;;;1.10;99.90;;;;;;4995571;28;20100;-67
2020/12/26 02:58:49;;;;;;;21.90;10.60;;;1.10;99.90;;;;;;4980385;28;20031;-67
2020/12/26 03:01:17;;;;;;;23.25;10.40;;;1.10;99.90;;;;;;4979587;28;20030;-67
2020/12/26 03:03:44;;;;;;;20.33;10.27;;;1.10;99.90;;;;;;4980429;28;20154;-66
2020/12/26 03:06:15;;;;;;;20.50;10.63;;;1.10;99.90;;;;;;4980123;28;20511;-67
2020/12/26 03:08:43;;;;;;;19.33;9.48;;;1.20;99.90;;;;;;4980563;28;20058;-67
2020/12/26 03:11:10;;;;;;;23.20;10.38;;;1.20;99.90;;;;;;4980677;28;20026;-67
2020/12/26 03:13:38;;;;;;;19.85;9.55;;;1.20;99.90;;;;;;4980289;28;20019;-67
2020/12/26 03:16:06;;;;;;;21.42;10.13;;;1.20;99.90;;;;;;4980207;28;20019;-67
2020/12/26 03:18:34;;;;;;;25.27;11.07;;;1.20;99.90;;;;;;4981106;28;20342;-67
2020/12/26 03:21:02;;;;;;;23.33;10.23;;;1.20;99.90;;;;;;4979972;28;20030;-67
2020/12/26 03:23:30;;;;;;;20.13;10.25;;;1.20;99.90;;;;;;4980076;28;20037;-67
2020/12/26 03:25:57;;;;;;;21.80;10.02;;;1.20;99.90;;;;;;4979860;28;20039;-67
2020/12/26 03:28:24;;;;;;;22.38;9.95;;;1.30;99.90;;;;;;4978803;28;20038;-67
2020/12/26 03:30:52;;;;;;;17.20;10.70;;;1.30;99.90;;;;;;4979675;28;20326;-67
2020/12/26 03:33:20;;;;;;;23.50;9.60;;;1.30;99.90;;;;;;4979918;28;20029;-67
2020/12/26 03:35:48;;;;;;;23.20;9.95;;;1.30;99.90;;;;;;4979731;28;20323;-67
2020/12/26 03:38:15;;;;;;;22.20;10.38;;;1.30;99.90;;;;;;4979744;28;20185;-67
2020/12/26 03:40:42;;;;;;;24.55;11.20;;;1.30;99.90;;;;;;4979550;28;20446;-67
2020/12/26 03:43:10;;;;;;;25.63;10.55;;;1.30;99.90;;;;;;4980279;28;20027;-67
2020/12/26 03:45:38;;;;;;;19.92;9.90;;;1.30;99.90;;;;;;4979479;28;20023;-67
2020/12/26 03:48:05;;;;;;;23.33;9.57;;;1.30;99.90;;;;;;4979422;28;20041;-67
2020/12/26 03:50:33;;;;;;;22.63;9.93;;;1.30;99.90;;;;;;4979442;28;20015;-67
2020/12/26 03:53:01;;;;;;;26.17;10.70;;;1.30;99.90;;;;;;4979362;28;20031;-67
2020/12/26 03:55:28;;;;;;;23.77;11.63;;;1.30;99.90;;;;;;4979882;28;20029;-67
2020/12/26 03:57:55;;;;;;;21.70;9.82;;;1.40;99.90;;;;;;4979314;28;20030;-67
2020/12/26 04:00:23;;;;;;;18.48;9.43;;;1.30;99.90;;;;;;4979689;28;20019;-67
2020/12/26 04:02:51;;;;;;;22.27;10.00;;;1.30;99.90;;;;;;4978828;28;20447;-67
2020/12/26 04:05:21;;;;;;;18.98;9.00;;;1.40;99.90;;;;;;4978873;28;20343;-67
2020/12/26 04:07:48;;;;;;;17.63;9.10;;;1.30;99.90;;;;;;4979375;28;20027;-67
2020/12/26 04:10:16;;;;;;;15.23;9.25;;;1.40;99.90;;;;;;4979023;28;20102;-67
2020/12/26 04:12:44;;;;;;;18.25;8.70;;;1.40;99.90;;;;;;4979584;28;20023;-67
2020/12/26 04:15:12;;;;;;;13.45;7.35;;;1.40;99.90;;;;;;4978859;28;20077;-67
2020/12/26 04:17:40;;;;;;;13.30;7.47;;;1.40;99.90;;;;;;4994282;28;20023;-67
2020/12/26 04:20:07;;;;;;;17.98;8.55;;;1.30;99.90;;;;;;4978310;28;20023;-67
2020/12/26 04:22:34;;;;;;;17.55;7.97;;;1.40;99.90;;;;;;4978840;28;20078;-67
2020/12/26 04:25:02;;;;;;;17.10;7.70;;;1.40;99.90;;;;;;4978763;28;20027;-67
2020/12/26 04:27:31;;;;;;;15.52;7.50;;;1.40;99.90;;;;;;4978927;28;20323;-67
2020/12/26 04:29:58;;;;;;;16.05;8.90;;;1.40;99.90;;;;;;4978846;28;20031;-66
2020/12/26 04:32:25;;;;;;;14.05;7.07;;;1.40;99.90;;;;;;4978678;28;20102;-66
2020/12/26 04:34:53;;;;;;;16.60;7.40;;;1.40;99.90;;;;;;4978192;28;20375;-66
2020/12/26 04:37:20;;;;;;;19.05;8.18;;;1.30;99.90;;;;;;4978948;28;20027;-66
2020/12/26 04:39:48;;;;;;;14.55;8.60;;;1.30;99.90;;;;;;4979103;28;20042;-66
2020/12/26 04:42:16;;;;;;;14.98;7.20;;;1.30;99.90;;;;;;4978550;28;20037;-66
2020/12/26 04:44:43;;;;;;;13.75;8.15;;;1.30;99.90;;;;;;4978952;28;20034;-66
2020/12/26 04:47:14;;;;;;;15.57;7.95;;;1.30;99.90;;;;;;4979136;28;20027;-66
2020/12/26 04:49:46;;;;;;;21.30;8.20;;;1.40;99.90;;;;;;4978245;28;20062;-66
2020/12/26 04:52:18;;;;;;;16.23;7.82;;;1.40;99.90;;;;;;4978303;28;20042;-66
2020/12/26 04:54:46;;;;;;;16.35;8.18;;;1.40;99.90;;;;;;4978857;28;20133;-66
2020/12/26 04:57:16;;;;;;;12.30;6.28;;;1.40;99.90;;;;;;4978939;28;20097;-66
2020/12/26 04:59:43;;;;;;;17.77;6.03;;;1.50;99.90;;;;;;4978672;28;20026;-66
2020/12/26 05:02:15;;;;;;;14.20;7.03;;;1.40;99.90;;;;;;4978143;28;20026;-66
2020/12/26 05:04:42;;;;;;;15.45;7.10;;;1.40;99.90;;;;;;4977766;28;20034;-66
2020/12/26 05:07:13;;;;;;;13.20;7.22;;;1.50;99.90;;;;;;4977619;28;20031;-66
2020/12/26 05:09:40;;;;;;;12.82;7.18;;;1.50;99.90;;;;;;4978394;28;20046;-66
2020/12/26 05:12:08;;;;;;;12.82;6.63;;;1.50;99.90;;;;;;4977563;28;20101;-66
2020/12/26 05:14:36;;;;;;;22.50;8.40;;;1.50;99.90;;;;;;4978126;28;20027;-67
2020/12/26 05:17:03;;;;;;;11.57;6.00;;;1.60;99.90;;;;;;4978147;28;20311;-66
2020/12/26 05:19:31;;;;;;;14.02;7.25;;;1.60;99.90;;;;;;4978196;28;20030;-66
2020/12/26 05:21:58;;;;;;;16.27;7.35;;;1.60;99.90;;;;;;4993190;28;20033;-67
2020/12/26 05:24:25;;;;;;;12.18;6.78;;;1.60;99.90;;;;;;4977850;28;20055;-66
2020/12/26 05:26:54;;;;;;;17.95;7.68;;;1.60;99.90;;;;;;4978371;28;20089;-67
2020/12/26 05:29:23;;;;;;;17.23;7.18;;;1.60;99.90;;;;;;4977955;28;20030;-67
2020/12/26 05:31:55;;;;;;;12.48;7.28;;;1.60;99.90;;;;;;4977145;28;20081;-66
2020/12/26 05:34:30;;;;;;;12.57;6.22;;;1.70;99.90;;;;;;4977606;28;20033;-67
2020/12/26 05:37:06;;;;;;;12.85;6.60;;;1.70;99.90;;;;;;4977728;28;20074;-66
2020/12/26 05:39:40;;;;;;;19.98;6.70;;;1.70;99.90;;;;;;4977680;28;20085;-66
2020/12/26 05:42:08;;;;;;;11.13;5.88;;;1.70;99.90;;;;;;4977779;28;20039;-66
2020/12/26 05:44:37;;;;;;;12.77;5.47;;;1.70;99.90;;;;;;4992814;28;20031;-66
2020/12/26 05:47:06;;;;;;;21.05;6.32;;;1.70;99.90;;;;;;4977601;28;20031;-66
2020/12/26 05:49:41;;;;;;;14.15;5.35;;;1.70;99.90;;;;;;4978047;28;20319;-66
2020/12/26 05:52:10;;;;;;;12.57;6.10;;;1.70;99.90;;;;;;4977793;28;20030;-67
2020/12/26 05:54:49;;;;;;;11.27;5.75;;;1.70;99.90;;;;;;4977504;28;20105;-66
2020/12/26 05:57:17;;;;;;;11.15;5.38;;;1.70;99.90;;;;;;4977557;28;20054;-67
2020/12/26 05:59:54;;;;;;;14.30;5.75;;;1.70;99.90;;;;;;4977427;28;20023;-66
2020/12/26 06:02:22;;;;;;;11.45;5.10;;;1.70;99.90;;;;;;4977658;28;20076;-67
2020/12/26 06:04:58;;;;;;;16.00;5.63;;;1.70;99.90;;;;;;4977665;28;20055;-67
2020/12/26 06:07:38;;;;;;;12.23;4.90;;;1.70;99.90;;;;;;4977762;28;20030;-66
2020/12/26 06:10:09;;;;;;;10.10;6.18;;;1.70;99.90;;;;;;4977202;28;20051;-67
2020/12/26 06:12:36;;;;;;;12.38;5.20;;;1.60;99.90;;;;;;4977536;28;20411;-67
2020/12/26 06:15:06;;;;;;;14.55;7.00;;;1.60;99.90;;;;;;4977557;28;20019;-67
2020/12/26 06:17:34;;;;;;;11.32;6.35;;;1.60;99.90;;;;;;4977279;28;20031;-66
2020/12/26 06:20:04;;;;;;;16.38;6.50;;;1.60;99.90;;;;;;4992478;28;20034;-67
2020/12/26 06:22:46;;;;;;;16.58;6.13;;;1.60;99.90;;;;;;4977278;28;20041;-67
2020/12/26 06:25:18;;;;;;;19.35;6.95;;;1.50;99.90;;;;;;4977287;28;20033;-67
2020/12/26 06:27:59;;;;;;;14.75;7.38;;;1.50;99.90;;;;;;4977231;28;20114;-67
2020/12/26 06:30:29;;;;;;;10.07;6.57;;;1.50;99.90;;;;;;4992357;28;20110;-67
2020/12/26 06:32:58;;;;;;;12.43;7.40;;;1.50;99.90;;;;;;4977247;28;20422;-67
2020/12/26 06:35:26;;;;;;;11.40;6.25;;;1.50;99.90;;;;;;4977479;28;20074;-67
2020/12/26 06:38:12;;;;;;;14.90;7.40;;;1.50;99.90;;;;;;4977890;28;20296;-66
2020/12/26 06:40:58;;;;;;;20.60;8.38;;;1.40;99.90;;;;;;4977126;28;20015;-66
2020/12/26 06:43:45;;;;;;;16.23;8.15;;;1.40;99.90;;;;;;4978045;28;20026;-67
2020/12/26 06:46:15;;;;;;;13.52;7.82;;;1.40;99.90;;;;;;4981108;28;20027;-67
2020/12/26 06:48:44;;;;;;;13.88;7.63;;;1.40;99.90;;;;;;4981176;28;20045;-67
2020/12/26 06:51:32;;;;;;;15.40;7.65;;;1.40;99.90;;;;;;4981045;28;20021;-67
2020/12/26 06:54:02;;;;;;;12.45;7.20;;;1.40;99.90;;;;;;4977006;28;20039;-67
2020/12/26 06:56:33;;;;;;;13.63;7.55;;;1.40;99.90;;;;;;4981148;28;20299;-67
2020/12/26 06:59:08;;;;;;;21.63;10.02;;;1.40;99.90;;;;;;4980935;28;20035;-67
2020/12/26 07:01:37;;;;;;;14.02;8.32;;;1.50;99.90;;;;;;4980308;28;20335;-67
2020/12/26 07:04:21;;;;;;;18.25;9.07;;;1.50;99.90;;;;;;4980206;28;20033;-67
2020/12/26 07:06:56;;;;;;;16.67;9.68;;;1.60;99.90;;;;;;4980225;28;20074;-67
2020/12/26 07:09:39;;;;;;;21.00;9.48;;;1.70;99.90;;;;;;4980634;28;20034;-67
2020/12/26 07:12:08;;;;;;;18.45;9.15;;;1.70;99.90;;;;;;4980710;28;20404;-67
2020/12/26 07:14:41;;;;;;;20.00;10.07;;;1.70;99.90;;;;;;4980142;28;20046;-67
2020/12/26 07:17:14;;;;;;;18.08;9.25;;;1.80;99.90;;;;;;4995362;28;20022;-67
2020/12/26 07:19:52;;;;;;;17.73;9.18;;;1.80;99.90;;;;;;4995100;28;20031;-67
2020/12/26 07:22:33;;;;;;;18.63;10.07;;;1.80;99.90;;;;;;4979919;28;20033;-66
2020/12/26 07:25:08;;;;;;;19.75;9.57;;;1.80;99.90;;;;;;4979881;28;20059;-65
2020/12/26 07:27:38;;;;;;;27.52;12.07;;;1.80;99.90;;;;;;4980129;28;20493;-65
2020/12/26 07:30:18;;;;;;;25.60;11.25;;;1.80;99.90;;;;;;4979643;28;20031;-65
2020/12/26 07:32:51;;;;;;;19.38;11.05;;;1.80;99.90;;;;;;4980248;28;20428;-65
2020/12/26 07:35:21;;;;;;;22.25;11.63;;;1.70;99.90;;;;;;4994815;28;20082;-65
2020/12/26 07:37:57;;;;;;;19.30;10.57;;;1.80;99.90;;;;;;4979663;28;20022;-65
2020/12/26 07:40:41;;;;;;;26.30;14.25;;;1.80;99.90;;;;;;4979539;28;20025;-65
2020/12/26 07:43:27;;;;;;;25.30;11.43;;;1.80;99.90;;;;;;4979559;28;20146;-64
2020/12/26 07:45:56;;;;;;;24.50;10.85;;;1.80;99.90;;;;;;4994654;28;20058;-65
2020/12/26 07:48:23;;;;;;;34.83;15.02;;;1.80;99.90;;;;;;4978597;28;20328;-65
2020/12/26 07:50:51;;;;;;;25.27;12.38;;;1.80;99.90;;;;;;4994602;28;20444;-65
2020/12/26 07:53:18;;;;;;;32.53;14.65;;;1.80;99.90;;;;;;4979923;28;20019;-66
2020/12/26 07:55:46;;;;;;;25.42;15.00;;;1.80;99.90;;;;;;4978425;28;20375;-65
2020/12/26 07:58:19;;;;;;;26.23;13.63;;;1.80;99.90;;;;;;4979744;28;20374;-67
2020/12/26 08:00:47;;;;;;;28.25;13.48;;;1.80;99.90;;;;;;4979197;28;20105;-67
2020/12/26 08:03:15;;;;;;;23.80;13.23;;;1.90;99.90;;;;;;4994295;28;20030;-68
2020/12/26 08:05:49;;;;;;;27.80;13.95;;;1.90;99.90;;;;;;4978248;28;20054;-67
2020/12/26 08:08:27;;;;;;;28.70;14.88;;;1.90;99.90;;;;;;4979225;28;20031;-69
2020/12/26 08:10:58;;;;;;;27.35;13.90;;;1.90;99.90;;;;;;4978973;28;20031;-66
2020/12/26 08:13:27;;;;;;;26.30;12.73;;;1.80;99.90;;;;;;4978911;28;20023;-67
2020/12/26 08:16:08;;;;;;;31.42;15.38;;;1.80;99.90;;;;;;4978880;28;20031;-67
2020/12/26 08:18:36;;;;;;;26.42;14.73;;;1.80;99.90;;;;;;4978914;28;20069;-66
2020/12/26 08:21:06;;;;;;;27.08;14.88;;;1.80;99.90;;;;;;4978403;28;20034;-67
2020/12/26 08:23:35;;;;;;;31.05;13.85;;;1.80;99.90;;;;;;4977805;28;20106;-66
2020/12/26 08:26:04;;;;;;;31.35;14.95;;;1.80;99.90;;;;;;4979790;28;20054;-66
2020/12/26 08:28:37;;;;;;;30.55;14.00;;;1.80;99.90;;;;;;4978700;28;20034;-66
2020/12/26 08:31:05;;;;;;;28.42;13.98;;;1.80;99.90;;;;;;4979200;28;20331;-66
2020/12/26 08:33:45;;;;;;;45.92;20.45;;;1.80;99.90;;;;;;4978551;28;20022;-66
2020/12/26 08:36:37;;;;;;;25.55;12.88;;;1.80;99.90;;;;;;4978767;28;20019;-63
2020/12/26 08:39:08;;;;;;;30.25;14.73;;;1.90;99.90;;;;;;4978738;28;20122;-64
2020/12/26 08:41:42;;;;;;;34.42;14.43;;;2.00;99.90;;;;;;4978571;28;20041;-64
2020/12/26 08:44:13;;;;;;;30.27;14.68;;;2.00;99.90;;;;;;4993503;28;20435;-65
2020/12/26 08:46:47;;;;;;;27.58;12.65;;;2.10;99.90;;;;;;4978480;28;20060;-65
2020/12/26 08:49:15;;;;;;;26.65;12.00;;;2.20;99.90;;;;;;4978102;28;20311;-64
2020/12/26 08:51:44;;;;;;;55.72;22.10;;;2.20;99.90;;;;;;4978338;28;20019;-65
2020/12/26 08:54:22;;;;;;;25.58;14.00;;;2.30;99.90;;;;;;4978203;28;20023;-65
2020/12/26 08:56:50;;;;;;;28.65;14.93;;;2.40;99.90;;;;;;4978219;28;20102;-65
2020/12/26 08:59:30;;;;;;;26.88;12.20;;;2.50;99.90;;;;;;4977503;28;20077;-65
2020/12/26 09:01:57;;;;;;;27.63;12.98;;;2.50;99.90;;;;;;4993269;28;20030;-65
2020/12/26 09:04:29;;;;;;;32.15;14.10;;;2.50;99.90;;;;;;4978060;28;20106;-65
2020/12/26 09:06:56;;;;;;;27.15;13.07;;;2.50;99.90;;;;;;4977755;28;20053;-65
2020/12/26 09:09:24;;;;;;;24.80;12.95;;;2.50;99.90;;;;;;4977986;28;20033;-65
2020/12/26 09:12:03;;;;;;;33.42;15.57;;;2.50;99.90;;;;;;4993413;28;20491;-65
2020/12/26 09:14:31;;;;;;;29.92;14.25;;;2.60;99.90;;;;;;4978529;28;20030;-65
2020/12/26 09:17:01;;;;;;;26.95;12.27;;;2.60;99.90;;;;;;4977905;28;20026;-65
2020/12/26 09:19:47;;;;;;;26.02;13.95;;;2.70;99.90;;;;;;4977925;28;20334;-66
2020/12/26 09:22:15;;;;;;;24.77;12.32;;;2.70;99.90;;;;;;4978309;28;20027;-66
2020/12/26 09:24:43;;;;;;;24.20;13.43;;;2.80;99.90;;;;;;4977846;28;20023;-66
2020/12/26 09:27:20;;;;;;;24.90;12.60;;;2.80;99.90;;;;;;4977793;28;20078;-66
2020/12/26 09:29:51;;;;;;;24.35;12.40;;;2.90;99.90;;;;;;4978157;28;20026;-67
2020/12/26 09:32:20;;;;;;;26.30;12.57;;;2.90;99.90;;;;;;4978023;28;20023;-65
2020/12/26 09:34:47;;;;;;;28.90;12.00;;;3.00;99.90;;;;;;4977741;28;20428;-65
2020/12/26 09:37:15;;;;;;;22.27;10.95;;;3.00;99.90;;;;;;4977686;28;20030;-65
2020/12/26 09:39:43;;;;;;;29.73;11.57;;;3.00;99.90;;;;;;4978182;28;20026;-65
2020/12/26 09:42:11;;;;;;;21.58;10.60;;;3.10;99.90;;;;;;4977817;28;20110;-65
2020/12/26 09:44:38;;;;;;;21.48;10.77;;;3.10;99.90;;;;;;4992821;28;20031;-65
2020/12/26 09:47:06;;;;;;;25.55;11.38;;;3.10;99.90;;;;;;4977631;28;20027;-66
2020/12/26 09:49:34;;;;;;;22.77;9.32;;;3.20;99.90;;;;;;4977475;28;20062;-65
2020/12/26 09:52:02;;;;;;;17.85;9.45;;;3.30;99.90;;;;;;4978288;28;20022;-66
2020/12/26 09:54:29;;;;;;;19.55;9.05;;;3.20;99.90;;;;;;4977555;28;20038;-65
2020/12/26 09:56:57;;;;;;;19.10;10.05;;;3.20;99.90;;;;;;4978165;28;20021;-65
2020/12/26 09:59:25;;;;;;;17.73;9.13;;;3.20;99.90;;;;;;4978333;28;20039;-65
2020/12/26 10:01:54;;;;;;;16.83;9.75;;;3.20;99.90;;;;;;4977637;28;20060;-65
2020/12/26 10:04:22;;;;;;;21.23;10.80;;;3.20;99.90;;;;;;4977943;28;20086;-65
2020/12/26 10:06:49;;;;;;;17.70;9.85;;;3.20;99.90;;;;;;4977151;28;20043;-63
2020/12/26 10:09:17;;;;;;;18.98;9.40;;;3.20;99.90;;;;;;4977330;28;20434;-66
2020/12/26 10:11:44;;;;;;;17.50;9.77;;;3.20;99.90;;;;;;4977347;28;20073;-65
2020/12/26 10:14:12;;;;;;;17.98;9.43;;;3.20;99.90;;;;;;4977377;28;20015;-65
2020/12/26 10:16:40;;;;;;;19.92;10.02;;;3.30;99.90;;;;;;4976969;28;20407;-65
2020/12/26 10:19:07;;;;;;;16.67;9.45;;;3.30;99.90;;;;;;4979349;28;20030;-65
2020/12/26 10:21:35;;;;;;;18.38;10.25;;;3.30;99.90;;;;;;4981723;28;20023;-65
2020/12/26 10:24:03;;;;;;;25.05;9.93;;;3.30;99.90;;;;;;4981649;28;20315;-65
2020/12/26 10:26:31;;;;;;;16.90;8.90;;;3.30;99.90;;;;;;4981235;28;20567;-65
2020/12/26 10:28:59;;;;;;;13.25;7.68;;;3.40;99.90;;;;;;4981734;28;20023;-65
2020/12/26 10:31:30;;;;;;;22.80;8.10;;;3.40;99.90;;;;;;4980894;28;20077;-65
2020/12/26 10:33:57;;;;;;;17.38;7.90;;;3.40;99.90;;;;;;4981191;28;20412;-65
2020/12/26 10:36:25;;;;;;;12.05;7.30;;;3.50;99.90;;;;;;4981542;28;20027;-65
2020/12/26 10:38:54;;;;;;;13.57;7.32;;;3.60;99.90;;;;;;4981867;28;20170;-65
2020/12/26 10:41:22;;;;;;;11.05;6.20;;;3.70;99.90;;;;;;4980724;28;20038;-65
2020/12/26 10:43:49;;;;;;;11.38;6.50;;;3.80;99.90;;;;;;4979639;28;20037;-65
2020/12/26 10:46:17;;;;;;;8.77;5.32;;;3.80;99.90;;;;;;4980986;28;20035;-65
2020/12/26 10:48:45;;;;;;;9.98;5.68;;;4.00;99.90;;;;;;4981040;28;20030;-65
2020/12/26 10:51:13;;;;;;;13.43;5.90;;;4.00;99.90;;;;;;4981101;28;20019;-65
2020/12/26 10:53:40;;;;;;;9.50;5.53;;;4.00;99.90;;;;;;4980539;28;20034;-65
2020/12/26 10:56:08;;;;;;;8.32;4.97;;;4.10;99.90;;;;;;4981214;28;20026;-65
2020/12/26 10:58:36;;;;;;;11.05;4.53;;;4.10;99.90;;;;;;4980519;28;20073;-65
2020/12/26 11:01:03;;;;;;;7.20;4.35;;;4.00;99.90;;;;;;4979933;28;20022;-65
2020/12/26 11:03:31;;;;;;;7.57;4.53;;;4.00;99.90;;;;;;4980651;28;20042;-65
2020/12/26 11:06:02;;;;;;;12.18;4.47;;;3.90;99.90;;;;;;4979077;28;20057;-65
2020/12/26 11:08:30;;;;;;;8.07;4.72;;;4.00;99.90;;;;;;4980519;28;20035;-65
2020/12/26 11:10:57;;;;;;;15.38;5.50;;;4.00;99.90;;;;;;4980350;28;20070;-65
2020/12/26 11:13:25;;;;;;;12.43;6.82;;;4.00;99.90;;;;;;4980436;28;20348;-65
2020/12/26 11:15:53;;;;;;;12.57;5.32;;;4.00;99.90;;;;;;4980096;28;20419;-65
2020/12/26 11:18:21;;;;;;;9.98;4.07;;;4.00;99.90;;;;;;4980651;28;20113;-65
2020/12/26 11:20:52;;;;;;;8.52;4.22;;;4.00;99.90;;;;;;4980022;28;20042;-65
2020/12/26 11:23:19;;;;;;;5.93;3.67;;;4.00;99.90;;;;;;4980040;28;20320;-65
2020/12/26 11:25:47;;;;;;;12.50;4.55;;;4.10;99.90;;;;;;4979981;28;20059;-65
2020/12/26 11:28:15;;;;;;;7.45;4.47;;;4.00;99.90;;;;;;4980063;28;20109;-65
2020/12/26 11:30:43;;;;;;;9.43;5.55;;;4.10;99.90;;;;;;4994980;28;20027;-65
2020/12/26 11:33:11;;;;;;;9.05;3.72;;;4.10;99.90;;;;;;4979783;28;20031;-65
2020/12/26 11:35:39;;;;;;;9.65;3.45;;;4.20;99.90;;;;;;4979800;28;20025;-65
2020/12/26 11:38:07;;;;;;;7.05;3.60;;;4.20;99.90;;;;;;4994919;28;20103;-64
2020/12/26 11:40:35;;;;;;;7.05;4.10;;;4.30;99.90;;;;;;4979649;28;20355;-66
2020/12/26 11:43:05;;;;;;;6.80;3.58;;;4.40;99.90;;;;;;4980187;28;20070;-65
2020/12/26 11:45:32;;;;;;;6.15;3.53;;;4.50;99.90;;;;;;4979740;28;20114;-65
2020/12/26 11:48:00;;;;;;;6.93;3.40;;;4.50;99.90;;;;;;4979432;28;20031;-63
2020/12/26 11:50:27;;;;;;;7.97;3.72;;;4.50;99.90;;;;;;4994606;28;20046;-64
2020/12/26 11:52:55;;;;;;;6.10;3.78;;;4.60;99.90;;;;;;4979506;28;20031;-65
2020/12/26 11:55:22;;;;;;;8.23;4.18;;;4.60;99.90;;;;;;4979987;28;20101;-64
2020/12/26 11:57:50;;;;;;;14.65;4.45;;;4.50;99.90;;;;;;4979676;28;20099;-65
2020/12/26 12:00:17;;;;;;;6.43;3.30;;;4.50;99.90;;;;;;4979339;28;20480;-63
2020/12/26 12:02:45;;;;;;;5.93;3.08;;;4.50;99.90;;;;;;4978354;28;20035;-63
2020/12/26 12:05:13;;;;;;;4.63;2.92;;;4.50;99.90;;;;;;4994127;28;20042;-63
2020/12/26 12:07:40;;;;;;;6.25;3.28;;;4.50;99.90;;;;;;4979775;28;20402;-63
2020/12/26 12:10:08;;;;;;;4.18;2.55;;;4.50;99.90;;;;;;4979126;28;20081;-64
2020/12/26 12:12:35;;;;;;;5.30;2.67;;;4.50;99.90;;;;;;4979150;28;20015;-63
2020/12/26 12:15:03;;;;;;;8.40;2.58;;;4.50;99.90;;;;;;4978498;28;20050;-63
2020/12/26 12:17:31;;;;;;;5.15;3.30;;;4.50;99.90;;;;;;4979242;28;20304;-63
2020/12/26 12:19:59;;;;;;;4.53;2.67;;;4.50;99.90;;;;;;4994121;28;20031;-65
2020/12/26 12:22:27;;;;;;;6.57;2.85;;;4.50;99.90;;;;;;4978898;28;20046;-66
2020/12/26 12:24:55;;;;;;;8.55;3.08;;;4.50;99.90;;;;;;4978919;28;20026;-65
2020/12/26 12:27:22;;;;;;;10.40;2.75;;;4.50;99.90;;;;;;4978827;28;20081;-66
2020/12/26 12:29:51;;;;;;;4.82;2.55;;;4.50;99.90;;;;;;4978560;28;20029;-66
2020/12/26 12:32:18;;;;;;;7.18;2.90;;;4.50;99.90;;;;;;4979223;28;20051;-66
2020/12/26 12:34:46;;;;;;;6.10;2.90;;;4.50;99.90;;;;;;4994417;28;20026;-66
2020/12/26 12:37:14;;;;;;;7.45;2.75;;;4.50;99.90;;;;;;4977902;28;20034;-66
2020/12/26 12:39:41;;;;;;;6.35;3.47;;;4.50;99.90;;;;;;4978580;28;20023;-66
2020/12/26 12:42:09;;;;;;;7.45;3.33;;;4.40;99.90;;;;;;4977540;28;20044;-66
2020/12/26 12:44:37;;;;;;;7.85;3.50;;;4.40;99.90;;;;;;4977495;28;20026;-66
2020/12/26 12:47:04;;;;;;;7.18;3.03;;;4.30;99.90;;;;;;4993525;28;20331;-66
2020/12/26 12:49:32;;;;;;;6.95;3.22;;;4.30;99.90;;;;;;4978332;28;20109;-66
2020/12/26 12:52:05;;;;;;;5.53;2.40;;;4.30;99.90;;;;;;4978388;28;20030;-66
2020/12/26 12:54:32;;;;;;;4.78;2.47;;;4.20;99.90;;;;;;4978353;28;20431;-66